• Join FlightAware (Why Join?)
  • Login
  • US Flag 
09:54AM EDT


 

Airport Tracker/Info


-or-


 

Live Flight TrackerFlight Track Log ✈ CTL22 ✈ 15-May-2013 ✈ KAZO - KBKL

Flight Track Log - Related Links

Times and Time Zones

All times are in EDT time to prevent confusion due to time zone crossing. See the CTL22 flight status page for this flight to view local times or setup timezone preferences in your user account.

Time Position Orientation Groundspeed Altitude Reporting Facility
EDT Latitude Longitude Course Direction KTS MPH feet Rate Location/Type
08:01PM 42.1925 -85.3783 109° East 148 170 4,100  Level Chicago Center
08:02PM 42.1761 -85.3208 111° Southeast 159 183 4,900 360 Climbing Chicago Center
08:03PM 42.1572 -85.2606 113° Southeast 169 194 4,900 300 Level Chicago Center
08:04PM 42.1639 -85.1336 103° East  Level Estimated
08:04PM 42.1353 -85.1997 116° Southeast 178 205 5,600  Level Chicago Center
08:05PM 42.1520 -85.0640 103° East  Level Estimated
08:05PM 42.1114 -85.1331 116° Southeast 168 193 6,000  Level Chicago Center
08:06PM 42.0872 -85.0728 118° Southeast 177 204 6,000  Level Chicago Center
08:07PM 42.0622 -85.0083 118° Southeast 188 216 6,000 300 Level Chicago Center
08:08PM 42.0394 -84.9489 117° Southeast 181 208 6,700 480 Climbing Chicago Center
08:09PM 42.0189 -84.8933 116° Southeast 168 193 7,000 180 Climbing Chicago Center
08:10PM 41.9947 -84.8306 117° Southeast 181 208 7,100  Climbing Chicago Center
08:11PM 41.9644 -84.7547 118° Southeast 190 219 7,100  Level Chicago Center
08:12PM 41.9367 -84.6917 121° Southeast 194 223 7,100 -60 Level Chicago Center
08:13PM 41.9114 -84.6283 118° Southeast 193 222 7,000  Descending Chicago Center
08:14PM 41.8872 -84.5650 117° Southeast 192 221 7,100  Climbing Chicago Center
08:15PM 41.8625 -84.5014 118° Southeast 191 220 7,100  Level Chicago Center
08:16PM 41.8389 -84.4361 116° Southeast 193 222 7,200 -60 Climbing Chicago Center
08:17PM 41.8214 -84.3533 106° East 194 223 7,000 -120 Descending Chicago Center
08:18PM 41.8139 -84.2806 98° East 197 227 7,000  Level Chicago Center
08:19PM 41.8028 -84.2075 102° East 198 228 7,100  Climbing Chicago Center
08:20PM 41.7900 -84.1353 103° East 198 228 7,000 -120 Descending Chicago Center